createdAt,value
2023-04-18T00:01:18.731Z,11.27
2023-04-18T00:03:47.219Z,10.80
2023-04-18T00:06:14.562Z,11.20
2023-04-18T00:08:41.824Z,10.75
2023-04-18T00:11:09.129Z,11.27
2023-04-18T00:13:38.543Z,10.45
2023-04-18T00:16:07.861Z,11.45
2023-04-18T00:18:37.111Z,10.35
2023-04-18T00:21:04.767Z,11.02
2023-04-18T00:23:34.404Z,11.00
2023-04-18T00:26:02.405Z,10.57
2023-04-18T00:28:29.726Z,10.82
2023-04-18T00:30:57.112Z,10.82
2023-04-18T00:33:24.365Z,10.82
2023-04-18T00:35:53.649Z,10.50
2023-04-18T00:38:20.978Z,10.52
2023-04-18T00:40:48.684Z,11.07
2023-04-18T00:43:17.035Z,10.73
2023-04-18T00:45:45.110Z,10.70
2023-04-18T00:48:12.666Z,10.77
2023-04-18T00:50:41.760Z,11.05
2023-04-18T00:53:11.062Z,10.73
2023-04-18T00:55:39.122Z,10.85
2023-04-18T00:58:06.533Z,11.48
2023-04-18T01:00:33.837Z,10.85
2023-04-18T01:03:01.440Z,11.38
2023-04-18T01:05:28.927Z,11.27
2023-04-18T01:08:01.137Z,10.80
2023-04-18T01:10:30.641Z,10.65
2023-04-18T01:13:18.709Z,11.27
2023-04-18T01:15:48.481Z,11.90
2023-04-18T01:18:17.081Z,11.63
2023-04-18T01:20:47.557Z,12.30
2023-04-18T01:23:16.367Z,11.27
2023-04-18T01:25:44.355Z,11.30
2023-04-18T01:28:14.581Z,11.60
2023-04-18T01:30:41.890Z,11.95
2023-04-18T01:33:09.225Z,11.10
2023-04-18T01:35:36.557Z,11.25
2023-04-18T01:38:03.801Z,11.32
2023-04-18T01:40:31.462Z,11.48
2023-04-18T01:43:00.744Z,11.27
2023-04-18T01:45:28.033Z,11.85
2023-04-18T01:47:55.303Z,10.38
2023-04-18T01:50:22.705Z,10.88
2023-04-18T01:52:49.940Z,11.48
2023-04-18T01:55:17.312Z,11.10
2023-04-18T01:57:44.577Z,11.07
2023-04-18T02:00:12.717Z,11.52
2023-04-18T02:02:43.137Z,10.85
2023-04-18T02:05:10.550Z,11.35
2023-04-18T02:07:41.186Z,11.40
2023-04-18T02:10:10.328Z,11.68
2023-04-18T02:12:38.161Z,11.02
2023-04-18T02:15:06.009Z,11.32
2023-04-18T02:17:36.442Z,11.18
2023-04-18T02:20:04.142Z,11.18
2023-04-18T02:22:31.879Z,11.10
2023-04-18T02:25:01.093Z,11.55
2023-04-18T02:27:28.442Z,11.25
2023-04-18T02:29:57.602Z,11.40
2023-04-18T02:32:24.977Z,11.38
2023-04-18T02:34:52.381Z,11.40
2023-04-18T02:37:19.644Z,10.40
2023-04-18T02:39:46.833Z,10.23
2023-04-18T02:42:14.668Z,10.55
2023-04-18T02:44:42.018Z,11.23
2023-04-18T02:47:09.971Z,11.27
2023-04-18T02:49:40.279Z,11.63
2023-04-18T02:52:07.610Z,11.10
2023-04-18T02:54:34.887Z,11.57
2023-04-18T02:57:09.745Z,11.25
2023-04-18T02:59:53.692Z,11.05
2023-04-18T03:02:43.854Z,11.65
2023-04-18T03:05:25.683Z,11.18
2023-04-18T03:07:56.334Z,10.25
2023-04-18T03:10:23.536Z,11.77
2023-04-18T03:12:50.976Z,10.35
2023-04-18T03:15:19.691Z,11.00
2023-04-18T03:17:47.757Z,11.07
2023-04-18T03:20:16.040Z,11.07
2023-04-18T03:22:43.588Z,11.18
2023-04-18T03:25:11.502Z,11.20
2023-04-18T03:27:45.912Z,10.88
2023-04-18T03:30:17.553Z,10.82
2023-04-18T03:32:50.473Z,10.60
2023-04-18T03:35:17.877Z,11.45
2023-04-18T03:37:45.470Z,11.02
2023-04-18T03:40:19.507Z,10.73
2023-04-18T03:42:48.808Z,11.35
2023-04-18T03:45:16.728Z,10.85
2023-04-18T03:47:46.694Z,11.00
2023-04-18T03:50:14.139Z,11.07
2023-04-18T03:52:43.232Z,10.93
2023-04-18T03:55:11.574Z,10.95
2023-04-18T03:57:41.247Z,10.68
2023-04-18T04:00:13.653Z,12.05
2023-04-18T04:02:43.938Z,11.30
2023-04-18T04:05:18.153Z,11.63
2023-04-18T04:07:46.030Z,12.07
2023-04-18T04:10:13.288Z,13.02
2023-04-18T04:12:40.651Z,11.52
2023-04-18T04:15:08.302Z,11.80
2023-04-18T04:17:38.345Z,13.15
2023-04-18T04:20:06.662Z,13.68
2023-04-18T04:22:34.628Z,14.50
2023-04-18T04:25:02.768Z,14.38
2023-04-18T04:27:36.965Z,13.88
2023-04-18T04:30:09.335Z,13.77
2023-04-18T04:32:39.018Z,14.48
2023-04-18T04:35:09.065Z,15.20
2023-04-18T04:37:36.437Z,15.57
2023-04-18T04:40:15.729Z,14.32
2023-04-18T04:42:54.054Z,14.98
2023-04-18T04:45:27.394Z,15.45
2023-04-18T04:47:54.751Z,13.40
2023-04-18T04:50:22.098Z,15.23
2023-04-18T04:52:49.952Z,16.08
2023-04-18T04:55:19.024Z,14.73
2023-04-18T04:57:47.814Z,14.73
2023-04-18T05:00:37.786Z,13.88
2023-04-18T05:03:05.218Z,14.77
2023-04-18T05:05:32.589Z,14.13
2023-04-18T05:08:00.092Z,15.15
2023-04-18T05:10:27.446Z,13.65
2023-04-18T05:12:54.678Z,14.77
2023-04-18T05:15:21.922Z,14.88
2023-04-18T05:17:49.197Z,14.18
2023-04-18T05:20:16.536Z,14.20
2023-04-18T05:22:43.722Z,14.90
2023-04-18T05:25:12.445Z,14.45
2023-04-18T05:27:40.703Z,15.75
2023-04-18T05:30:08.500Z,14.45
2023-04-18T05:32:35.872Z,16.33
2023-04-18T05:35:03.363Z,16.27
2023-04-18T05:37:30.701Z,15.02
2023-04-18T05:39:59.898Z,15.05
2023-04-18T05:42:27.949Z,15.25
2023-04-18T05:44:55.410Z,14.90
2023-04-18T05:47:24.233Z,14.88
2023-04-18T05:49:51.597Z,14.43
2023-04-18T05:52:18.788Z,14.80
2023-04-18T05:54:46.167Z,15.55
2023-04-18T05:57:13.535Z,13.57
2023-04-18T05:59:40.844Z,16.05
2023-04-18T06:02:13.438Z,15.65
2023-04-18T06:04:42.176Z,14.30
2023-04-18T06:07:10.210Z,14.52
2023-04-18T06:09:37.611Z,14.93
2023-04-18T06:12:05.077Z,14.38
2023-04-18T06:14:32.513Z,15.07
2023-04-18T06:16:59.994Z,14.80
2023-04-18T06:19:27.299Z,15.18
2023-04-18T06:21:54.512Z,14.82
2023-04-18T06:24:21.909Z,14.52
2023-04-18T06:26:49.159Z,15.13
2023-04-18T06:29:18.221Z,15.25
2023-04-18T06:31:46.311Z,14.55
2023-04-18T06:34:13.969Z,14.38
2023-04-18T06:36:41.310Z,13.80
2023-04-18T06:39:08.979Z,15.15
2023-04-18T06:41:36.273Z,15.98
2023-04-18T06:44:04.609Z,16.35
2023-04-18T06:46:33.016Z,14.25
2023-04-18T06:49:00.519Z,15.43
2023-04-18T06:51:28.082Z,14.52
2023-04-18T06:53:55.297Z,14.23
2023-04-18T06:56:22.959Z,15.50
2023-04-18T06:58:52.909Z,14.68
2023-04-18T07:01:20.358Z,15.48
2023-04-18T07:03:47.983Z,14.95
2023-04-18T07:06:15.632Z,14.15
2023-04-18T07:08:42.975Z,14.20
2023-04-18T07:11:11.617Z,14.93
2023-04-18T07:13:38.875Z,13.63
2023-04-18T07:16:06.506Z,13.45
2023-04-18T07:18:38.044Z,13.02
2023-04-18T07:21:09.488Z,13.10
2023-04-18T07:23:37.168Z,12.60
2023-04-18T07:26:05.847Z,12.43
2023-04-18T07:28:33.529Z,12.00
2023-04-18T07:31:03.190Z,12.52
2023-04-18T07:33:33.992Z,12.35
2023-04-18T07:36:03.001Z,12.35
2023-04-18T07:38:30.376Z,12.40
2023-04-18T07:40:59.287Z,13.05
2023-04-18T07:43:27.247Z,11.82
2023-04-18T07:45:54.724Z,11.95
2023-04-18T07:48:27.902Z,12.45
2023-04-18T07:50:55.085Z,12.73
2023-04-18T07:53:22.321Z,12.13
2023-04-18T07:55:50.292Z,14.07
2023-04-18T07:58:17.916Z,12.75
2023-04-18T08:00:45.200Z,12.10
2023-04-18T08:03:13.567Z,11.82
2023-04-18T08:05:42.918Z,11.50
2023-04-18T08:08:12.163Z,12.27
2023-04-18T08:10:39.786Z,12.45
2023-04-18T08:13:08.199Z,12.30
2023-04-18T08:15:35.793Z,12.10
2023-04-18T08:18:03.155Z,12.10
2023-04-18T08:20:30.644Z,11.15
2023-04-18T08:23:07.678Z,12.43
2023-04-18T08:25:39.032Z,11.40
2023-04-18T08:28:06.284Z,11.40
2023-04-18T08:30:33.595Z,10.95
2023-04-18T08:33:01.599Z,11.88
2023-04-18T08:35:29.370Z,11.80
2023-04-18T08:37:56.785Z,12.88
2023-04-18T08:40:24.419Z,13.18
2023-04-18T08:42:53.587Z,11.18
2023-04-18T08:45:21.072Z,10.98
2023-04-18T08:47:48.540Z,11.88
2023-04-18T08:50:17.432Z,11.32
2023-04-18T08:52:50.663Z,11.63
2023-04-18T08:55:19.235Z,11.45
2023-04-18T08:57:47.604Z,11.02
2023-04-18T09:00:17.687Z,11.25
2023-04-18T09:02:46.998Z,11.68
2023-04-18T09:05:19.809Z,11.65
2023-04-18T09:07:53.127Z,11.27
2023-04-18T09:10:30.229Z,11.32
2023-04-18T09:12:59.285Z,12.23
2023-04-18T09:15:27.510Z,10.55
2023-04-18T09:17:57.966Z,10.70
2023-04-18T09:20:38.056Z,11.02
2023-04-18T09:23:11.152Z,10.55
2023-04-18T09:25:44.372Z,10.25
2023-04-18T09:28:30.224Z,10.73
2023-04-18T09:31:12.244Z,9.80
2023-04-18T09:33:46.441Z,10.73
2023-04-18T09:36:21.912Z,10.25
2023-04-18T09:38:53.717Z,9.50
2023-04-18T09:41:23.518Z,9.00
2023-04-18T09:44:07.664Z,8.93
2023-04-18T09:46:35.652Z,9.30
2023-04-18T09:49:03.068Z,10.25
2023-04-18T09:51:31.929Z,10.25
2023-04-18T09:54:00.798Z,8.80
2023-04-18T09:56:29.765Z,9.85
2023-04-18T09:59:12.135Z,9.85
2023-04-18T10:01:45.050Z,9.57
2023-04-18T10:04:12.849Z,8.57
2023-04-18T10:06:42.250Z,9.77
2023-04-18T10:09:10.554Z,8.38
2023-04-18T10:11:38.222Z,8.00
2023-04-18T10:14:09.893Z,8.20
2023-04-18T10:16:38.852Z,8.55
2023-04-18T10:19:26.430Z,7.85
2023-04-18T10:21:58.461Z,7.53
2023-04-18T10:24:54.243Z,7.60
2023-04-18T10:27:49.642Z,7.13
2023-04-18T10:30:18.259Z,7.65
2023-04-18T10:32:48.859Z,8.13
2023-04-18T10:35:16.127Z,7.50
2023-04-18T10:38:00.069Z,7.07
2023-04-18T10:40:34.884Z,7.47
2023-04-18T10:43:02.311Z,7.20
2023-04-18T10:45:32.621Z,7.68
2023-04-18T10:48:27.744Z,7.82
2023-04-18T10:51:13.304Z,7.43
2023-04-18T10:53:54.324Z,7.22
2023-04-18T10:56:21.821Z,8.50
2023-04-18T10:58:53.077Z,7.60
2023-04-18T11:01:25.077Z,7.95
2023-04-18T11:03:53.478Z,7.10
2023-04-18T11:06:21.935Z,6.93
2023-04-18T11:08:50.245Z,7.00
2023-04-18T11:11:17.583Z,6.57
2023-04-18T11:14:00.261Z,7.07
2023-04-18T11:16:28.302Z,7.22
2023-04-18T11:18:56.178Z,7.72
2023-04-18T11:21:30.880Z,7.65
2023-04-18T11:23:58.787Z,8.18
2023-04-18T11:26:26.776Z,8.02
2023-04-18T11:28:58.088Z,7.38
2023-04-18T11:31:25.649Z,7.22
2023-04-18T11:33:56.325Z,6.90
2023-04-18T11:36:23.522Z,7.45
2023-04-18T11:38:50.777Z,6.97
2023-04-18T11:41:18.053Z,7.25
2023-04-18T11:43:46.556Z,7.35
2023-04-18T11:46:13.967Z,6.90
2023-04-18T11:48:42.937Z,6.38
2023-04-18T11:51:38.836Z,6.75
2023-04-18T11:54:06.214Z,7.13
2023-04-18T11:56:36.100Z,7.40
2023-04-18T11:59:10.465Z,7.25
2023-04-18T12:01:37.724Z,7.25
2023-04-18T12:04:09.287Z,7.90
2023-04-18T12:06:50.496Z,8.45
2023-04-18T12:09:18.290Z,8.45
2023-04-18T12:12:01.149Z,8.48
2023-04-18T12:14:29.090Z,8.43
2023-04-18T12:16:56.608Z,8.57
2023-04-18T12:19:28.415Z,8.90
2023-04-18T12:24:25.042Z,8.73
2023-04-18T12:26:53.290Z,8.75
2023-04-18T12:29:20.675Z,9.05
2023-04-18T12:31:48.014Z,10.30
2023-04-18T12:34:15.795Z,9.80
2023-04-18T12:36:43.358Z,8.88
2023-04-18T12:39:10.873Z,9.65
2023-04-18T12:41:38.154Z,9.18
2023-04-18T12:44:05.991Z,10.60
2023-04-18T12:46:33.344Z,11.00
2023-04-18T12:49:00.938Z,9.90
2023-04-18T12:51:28.531Z,10.40
2023-04-18T12:53:56.517Z,9.50
2023-04-18T12:56:23.810Z,9.68
2023-04-18T12:58:51.167Z,10.85
2023-04-18T13:01:18.550Z,9.85
2023-04-18T13:03:51.091Z,10.25
2023-04-18T13:06:27.483Z,9.52
2023-04-18T13:08:54.714Z,9.57
2023-04-18T13:11:22.686Z,9.85
2023-04-18T13:13:50.009Z,9.07
2023-04-18T13:16:17.294Z,8.95
2023-04-18T13:18:44.565Z,8.52
2023-04-18T13:21:11.888Z,8.00
2023-04-18T13:23:39.086Z,8.38
2023-04-18T13:26:06.678Z,8.32
2023-04-18T13:28:33.865Z,8.02
2023-04-18T13:31:01.339Z,7.95
2023-04-18T13:33:28.559Z,8.10
2023-04-18T13:35:56.182Z,8.23
2023-04-18T13:38:23.456Z,7.90
2023-04-18T13:40:55.817Z,7.65
2023-04-18T13:43:31.820Z,8.18
2023-04-18T13:45:59.035Z,8.10
2023-04-18T13:48:26.264Z,7.50
2023-04-18T13:50:54.170Z,7.47
2023-04-18T13:53:23.338Z,7.70
2023-04-18T13:55:50.571Z,7.65
2023-04-18T13:58:17.816Z,8.25
2023-04-18T14:00:45.042Z,7.22
2023-04-18T14:03:12.679Z,7.72
2023-04-18T14:05:40.143Z,10.98
2023-04-18T14:08:07.398Z,10.70
2023-04-18T14:10:35.051Z,9.38
2023-04-18T14:13:02.471Z,9.50
2023-04-18T14:15:30.125Z,11.15
2023-04-18T14:17:57.524Z,10.57
2023-04-18T14:20:26.554Z,11.93
2023-04-18T14:22:53.789Z,9.50
2023-04-18T14:25:20.982Z,10.35
2023-04-18T14:27:48.750Z,10.27
2023-04-18T14:30:16.031Z,10.00
2023-04-18T14:32:43.261Z,10.30
2023-04-18T14:35:10.791Z,9.95
2023-04-18T14:37:38.060Z,9.75
2023-04-18T14:40:08.301Z,10.18
2023-04-18T14:42:35.550Z,10.50
2023-04-18T14:45:04.411Z,10.68
2023-04-18T14:47:34.699Z,10.35
2023-04-18T14:50:02.120Z,9.75
2023-04-18T14:52:29.401Z,9.95
2023-04-18T14:54:56.656Z,9.82
2023-04-18T14:57:23.916Z,9.75
2023-04-18T14:59:51.643Z,9.70
2023-04-18T15:02:18.919Z,9.85
2023-04-18T15:04:46.428Z,10.10
2023-04-18T15:07:15.126Z,10.63
2023-04-18T15:09:42.393Z,8.95
2023-04-18T15:12:09.565Z,9.77
2023-04-18T15:14:36.796Z,10.35
2023-04-18T15:17:05.560Z,9.85
2023-04-18T15:19:32.989Z,9.93
2023-04-18T15:22:00.592Z,10.10
2023-04-18T15:24:27.840Z,10.02
2023-04-18T15:26:55.117Z,10.38
2023-04-18T15:29:22.436Z,10.88
2023-04-18T15:31:49.884Z,10.27
2023-04-18T15:34:17.756Z,9.90
2023-04-18T15:36:48.776Z,10.48
2023-04-18T15:39:20.301Z,10.60
2023-04-18T15:41:47.458Z,9.43
2023-04-18T15:44:14.921Z,10.70
2023-04-18T15:46:42.378Z,11.27
2023-04-18T15:49:10.214Z,10.57
2023-04-18T15:51:37.461Z,9.90
2023-04-18T15:54:04.704Z,8.88
2023-04-18T15:56:33.538Z,9.57
2023-04-18T15:59:03.190Z,8.98
2023-04-18T16:01:30.616Z,10.23
2023-04-18T16:03:57.905Z,9.60
2023-04-18T16:06:25.322Z,9.73
2023-04-18T16:08:52.554Z,9.35
2023-04-18T16:11:21.682Z,8.93
2023-04-18T16:13:49.092Z,10.75
2023-04-18T16:16:18.729Z,10.57
2023-04-18T16:18:47.475Z,10.70
2023-04-18T16:21:16.014Z,10.73
2023-04-18T16:23:43.664Z,11.90
2023-04-18T16:26:11.005Z,11.05
2023-04-18T16:28:39.413Z,11.38
2023-04-18T16:31:07.001Z,10.43
2023-04-18T16:33:34.424Z,10.75
2023-04-18T16:36:04.647Z,10.82
2023-04-18T16:38:32.008Z,11.38
2023-04-18T16:41:01.659Z,10.98
2023-04-18T16:43:31.053Z,12.07
2023-04-18T16:46:00.385Z,10.80
2023-04-18T16:48:29.068Z,11.50
2023-04-18T16:50:57.053Z,12.13
2023-04-18T16:53:25.257Z,13.35
2023-04-18T16:55:53.307Z,11.10
2023-04-18T16:58:21.686Z,12.15
2023-04-18T17:00:49.019Z,11.30
2023-04-18T17:03:16.376Z,11.85
2023-04-18T17:05:44.617Z,11.23
2023-04-18T17:08:11.903Z,12.45
2023-04-18T17:10:39.084Z,12.27
2023-04-18T17:13:06.362Z,11.70
2023-04-18T17:15:33.586Z,11.32
2023-04-18T17:18:01.404Z,11.60
2023-04-18T17:20:28.749Z,11.68
2023-04-18T17:22:57.421Z,12.15
2023-04-18T17:25:24.714Z,10.75
2023-04-18T17:27:51.981Z,12.32
2023-04-18T17:30:19.284Z,11.57
2023-04-18T17:32:46.529Z,12.15
2023-04-18T17:35:14.822Z,13.05
2023-04-18T17:37:45.123Z,12.55
2023-04-18T17:40:13.222Z,11.95
2023-04-18T17:42:41.162Z,13.07
2023-04-18T17:45:09.504Z,14.23
2023-04-18T17:47:37.008Z,12.82
2023-04-18T17:50:04.809Z,11.68
2023-04-18T17:52:32.454Z,12.98
2023-04-18T17:55:01.663Z,12.43
2023-04-18T17:57:30.779Z,12.80
2023-04-18T17:59:57.998Z,12.80
2023-04-18T18:02:25.399Z,13.63
2023-04-18T18:04:53.006Z,13.23
2023-04-18T18:07:20.928Z,13.75
2023-04-18T18:09:48.159Z,14.70
2023-04-18T18:12:15.387Z,13.68
2023-04-18T18:14:42.678Z,14.85
2023-04-18T18:17:10.363Z,14.35
2023-04-18T18:19:37.888Z,14.48
2023-04-18T18:22:05.121Z,14.50
2023-04-18T18:24:32.380Z,14.02
2023-04-18T18:26:59.690Z,15.40
2023-04-18T18:29:26.918Z,14.23
2023-04-18T18:31:54.107Z,13.80
2023-04-18T18:34:21.655Z,14.15
2023-04-18T18:36:48.891Z,14.85
2023-04-18T18:39:16.723Z,13.35
2023-04-18T18:41:44.191Z,14.25
2023-04-18T18:44:11.780Z,14.77
2023-04-18T18:46:39.033Z,14.48
2023-04-18T18:49:06.249Z,14.52
2023-04-18T18:51:33.540Z,14.55
2023-04-18T18:54:00.830Z,13.75
2023-04-18T18:56:28.216Z,12.85
2023-04-18T18:58:55.710Z,13.27
2023-04-18T19:01:23.406Z,13.50
2023-04-18T19:03:51.062Z,13.80
2023-04-18T19:06:18.480Z,14.18
2023-04-18T19:08:45.751Z,13.63
2023-04-18T19:11:13.161Z,14.98
2023-04-18T19:13:40.520Z,14.20
2023-04-18T19:16:07.866Z,16.20
2023-04-18T19:18:36.084Z,15.18
2023-04-18T19:21:05.016Z,15.13
2023-04-18T19:23:32.354Z,14.13
2023-04-18T19:25:59.704Z,14.73
2023-04-18T19:28:27.746Z,16.13
2023-04-18T19:30:55.317Z,16.05
2023-04-18T19:33:24.664Z,15.07
2023-04-18T19:35:52.247Z,12.98
2023-04-18T19:38:19.599Z,13.90
2023-04-18T19:40:47.170Z,15.70
2023-04-18T19:43:14.506Z,14.93
2023-04-18T19:45:41.877Z,16.23
2023-04-18T19:48:09.181Z,13.43
2023-04-18T19:50:39.602Z,14.13
2023-04-18T19:53:07.199Z,13.52
2023-04-18T19:55:34.654Z,12.43
2023-04-18T19:58:02.027Z,12.73
2023-04-18T20:00:29.512Z,12.98
2023-04-18T20:02:58.838Z,13.40
2023-04-18T20:05:26.432Z,13.43
2023-04-18T20:07:53.721Z,13.00
2023-04-18T20:10:23.695Z,16.98
2023-04-18T20:12:51.139Z,14.02
2023-04-18T20:15:18.589Z,13.60
2023-04-18T20:17:45.981Z,13.00
2023-04-18T20:20:13.329Z,11.73
2023-04-18T20:22:41.918Z,13.93
2023-04-18T20:25:09.433Z,14.90
2023-04-18T20:27:36.743Z,14.90
2023-04-18T20:30:04.762Z,13.40
2023-04-18T20:32:32.262Z,12.52
2023-04-18T20:35:00.117Z,12.30
2023-04-18T20:37:27.755Z,12.00
2023-04-18T20:39:55.868Z,11.60
2023-04-18T20:42:23.723Z,12.23
2023-04-18T20:44:54.775Z,13.25
2023-04-18T20:47:22.652Z,15.27
2023-04-18T20:49:50.784Z,13.48
2023-04-18T20:52:18.436Z,13.60
2023-04-18T20:54:46.260Z,14.32
2023-04-18T20:57:13.965Z,13.43
2023-04-18T20:59:41.350Z,15.68
2023-04-18T21:02:09.012Z,14.98
2023-04-18T21:04:36.565Z,17.27
2023-04-18T21:07:03.892Z,16.23
2023-04-18T21:09:36.391Z,14.15
2023-04-18T21:12:05.200Z,14.15
2023-04-18T21:14:32.420Z,13.90
2023-04-18T21:17:00.916Z,13.55
2023-04-18T21:19:28.258Z,14.30
2023-04-18T21:21:55.469Z,15.52
2023-04-18T21:24:22.756Z,14.60
2023-04-18T21:26:49.964Z,14.63
2023-04-18T21:29:17.486Z,14.25
2023-04-18T21:31:45.652Z,14.13
2023-04-18T21:34:13.773Z,15.07
2023-04-18T21:36:41.994Z,17.40
2023-04-18T21:39:10.212Z,16.15
2023-04-18T21:41:38.366Z,14.50
2023-04-18T21:44:05.719Z,14.32
2023-04-18T21:46:32.982Z,16.73
2023-04-18T21:49:00.268Z,15.52
2023-04-18T21:51:28.249Z,14.88
2023-04-18T21:53:55.721Z,13.82
2023-04-18T21:56:22.960Z,14.18
2023-04-18T21:58:50.312Z,13.40
2023-04-18T22:01:17.670Z,12.40
2023-04-18T22:03:45.149Z,13.18
2023-04-18T22:06:12.547Z,12.80
2023-04-18T22:08:39.769Z,12.30
2023-04-18T22:11:09.275Z,12.15
2023-04-18T22:13:36.452Z,12.07
2023-04-18T22:16:04.019Z,13.60
2023-04-18T22:18:34.604Z,13.38
2023-04-18T22:21:03.505Z,14.63
2023-04-18T22:23:31.380Z,12.63
2023-04-18T22:25:58.631Z,13.18
2023-04-18T22:28:27.987Z,16.42
2023-04-18T22:30:55.468Z,15.63
2023-04-18T22:33:22.853Z,14.25
2023-04-18T22:35:50.499Z,13.60
2023-04-18T22:38:17.806Z,13.10
2023-04-18T22:40:45.077Z,10.93
2023-04-18T22:43:12.315Z,11.95
2023-04-18T22:45:39.564Z,12.75
2023-04-18T22:48:11.502Z,10.52
2023-04-18T22:53:11.636Z,10.75
2023-04-18T22:55:40.856Z,11.40
2023-04-18T22:58:08.988Z,10.65
2023-04-18T23:00:36.909Z,9.77
2023-04-18T23:03:04.752Z,10.73
2023-04-18T23:05:32.327Z,10.68
2023-04-18T23:08:00.603Z,9.85
2023-04-18T23:10:28.185Z,10.52
2023-04-18T23:12:55.555Z,10.40
2023-04-18T23:15:23.117Z,10.60
2023-04-18T23:17:54.120Z,10.43
2023-04-18T23:20:22.242Z,9.83
2023-04-18T23:22:51.796Z,14.18
2023-04-18T23:25:22.456Z,15.65
2023-04-18T23:27:49.759Z,11.43
2023-04-18T23:30:17.256Z,9.68
2023-04-18T23:32:45.028Z,10.98
2023-04-18T23:35:12.979Z,11.02
2023-04-18T23:37:40.477Z,11.35
2023-04-18T23:40:08.523Z,11.27
2023-04-18T23:42:36.071Z,11.07
2023-04-18T23:45:04.163Z,10.52
2023-04-18T23:47:33.241Z,11.85
2023-04-18T23:50:00.683Z,11.23
2023-04-18T23:52:28.952Z,11.73
2023-04-18T23:55:02.299Z,12.20
2023-04-18T23:57:30.101Z,11.23
2023-04-18T23:59:57.314Z,12.48
